sensor_id;sensor_type;location;lat;lon;timestamp;P1;durP1;ratioP1;P2;durP2;ratioP2
12774;SDS011;6451;42.630;23.382;2023-12-28T00:01:50;9.17;;;5.40;;
12774;SDS011;6451;42.630;23.382;2023-12-28T00:04:17;7.73;;;4.93;;
12774;SDS011;6451;42.630;23.382;2023-12-28T00:06:45;7.53;;;5.70;;
12774;SDS011;6451;42.630;23.382;2023-12-28T00:09:20;9.90;;;5.70;;
12774;SDS011;6451;42.630;23.382;2023-12-28T00:11:47;9.13;;;5.40;;
12774;SDS011;6451;42.630;23.382;2023-12-28T00:14:14;7.07;;;5.43;;
12774;SDS011;6451;42.630;23.382;2023-12-28T00:16:42;9.93;;;5.77;;
12774;SDS011;6451;42.630;23.382;2023-12-28T00:19:09;8.00;;;5.20;;
12774;SDS011;6451;42.630;23.382;2023-12-28T00:21:36;7.73;;;5.60;;
12774;SDS011;6451;42.630;23.382;2023-12-28T00:24:04;9.77;;;6.10;;
12774;SDS011;6451;42.630;23.382;2023-12-28T00:26:31;8.73;;;5.73;;
12774;SDS011;6451;42.630;23.382;2023-12-28T00:28:59;7.27;;;5.33;;
12774;SDS011;6451;42.630;23.382;2023-12-28T00:31:26;8.67;;;5.97;;
12774;SDS011;6451;42.630;23.382;2023-12-28T00:33:53;8.90;;;5.70;;
12774;SDS011;6451;42.630;23.382;2023-12-28T00:36:20;8.00;;;5.57;;
12774;SDS011;6451;42.630;23.382;2023-12-28T00:38:46;8.47;;;5.80;;
12774;SDS011;6451;42.630;23.382;2023-12-28T00:41:15;8.57;;;5.80;;
12774;SDS011;6451;42.630;23.382;2023-12-28T00:43:42;9.70;;;6.10;;
12774;SDS011;6451;42.630;23.382;2023-12-28T00:46:08;8.70;;;5.67;;
12774;SDS011;6451;42.630;23.382;2023-12-28T00:48:36;8.87;;;6.40;;
12774;SDS011;6451;42.630;23.382;2023-12-28T00:51:03;8.40;;;6.00;;
12774;SDS011;6451;42.630;23.382;2023-12-28T00:53:30;9.50;;;6.10;;
12774;SDS011;6451;42.630;23.382;2023-12-28T00:55:57;10.67;;;7.03;;
12774;SDS011;6451;42.630;23.382;2023-12-28T00:58:25;11.57;;;7.43;;
12774;SDS011;6451;42.630;23.382;2023-12-28T01:00:52;8.57;;;5.80;;
12774;SDS011;6451;42.630;23.382;2023-12-28T01:03:21;10.33;;;6.40;;
12774;SDS011;6451;42.630;23.382;2023-12-28T01:05:49;9.57;;;6.33;;
12774;SDS011;6451;42.630;23.382;2023-12-28T01:08:17;8.17;;;5.63;;
12774;SDS011;6451;42.630;23.382;2023-12-28T01:10:44;9.57;;;6.30;;
12774;SDS011;6451;42.630;23.382;2023-12-28T01:13:11;9.33;;;5.83;;
12774;SDS011;6451;42.630;23.382;2023-12-28T01:15:41;9.03;;;5.80;;
12774;SDS011;6451;42.630;23.382;2023-12-28T01:18:07;6.30;;;4.90;;
12774;SDS011;6451;42.630;23.382;2023-12-28T01:20:35;6.70;;;4.90;;
12774;SDS011;6451;42.630;23.382;2023-12-28T01:23:02;7.60;;;5.23;;
12774;SDS011;6451;42.630;23.382;2023-12-28T01:25:29;7.17;;;5.10;;
12774;SDS011;6451;42.630;23.382;2023-12-28T01:27:56;7.90;;;4.73;;
12774;SDS011;6451;42.630;23.382;2023-12-28T01:30:23;9.20;;;5.40;;
12774;SDS011;6451;42.630;23.382;2023-12-28T01:32:53;8.93;;;5.67;;
12774;SDS011;6451;42.630;23.382;2023-12-28T01:35:20;9.20;;;5.70;;
12774;SDS011;6451;42.630;23.382;2023-12-28T01:37:47;9.80;;;5.50;;
12774;SDS011;6451;42.630;23.382;2023-12-28T01:40:15;8.53;;;5.33;;
12774;SDS011;6451;42.630;23.382;2023-12-28T01:42:42;7.43;;;5.10;;
12774;SDS011;6451;42.630;23.382;2023-12-28T01:45:09;7.10;;;5.17;;
12774;SDS011;6451;42.630;23.382;2023-12-28T01:47:36;10.03;;;5.73;;
12774;SDS011;6451;42.630;23.382;2023-12-28T01:50:04;7.90;;;5.40;;
12774;SDS011;6451;42.630;23.382;2023-12-28T01:52:32;8.10;;;5.77;;
12774;SDS011;6451;42.630;23.382;2023-12-28T01:55:00;7.57;;;5.40;;
12774;SDS011;6451;42.630;23.382;2023-12-28T01:57:27;6.60;;;5.20;;
12774;SDS011;6451;42.630;23.382;2023-12-28T01:59:55;8.63;;;5.37;;
12774;SDS011;6451;42.630;23.382;2023-12-28T02:02:23;8.10;;;5.10;;
12774;SDS011;6451;42.630;23.382;2023-12-28T02:04:51;6.87;;;5.20;;
12774;SDS011;6451;42.630;23.382;2023-12-28T02:07:20;8.57;;;5.03;;
12774;SDS011;6451;42.630;23.382;2023-12-28T02:09:47;6.70;;;4.77;;
12774;SDS011;6451;42.630;23.382;2023-12-28T02:12:14;8.23;;;5.00;;
12774;SDS011;6451;42.630;23.382;2023-12-28T02:14:41;6.67;;;4.73;;
12774;SDS011;6451;42.630;23.382;2023-12-28T02:17:10;6.17;;;4.80;;
12774;SDS011;6451;42.630;23.382;2023-12-28T02:19:43;7.10;;;4.93;;
12774;SDS011;6451;42.630;23.382;2023-12-28T02:22:14;8.73;;;5.10;;
12774;SDS011;6451;42.630;23.382;2023-12-28T02:25:00;7.77;;;4.93;;
12774;SDS011;6451;42.630;23.382;2023-12-28T02:27:30;9.07;;;5.23;;
12774;SDS011;6451;42.630;23.382;2023-12-28T02:29:57;8.20;;;5.40;;
12774;SDS011;6451;42.630;23.382;2023-12-28T02:32:25;6.40;;;4.97;;
12774;SDS011;6451;42.630;23.382;2023-12-28T02:35:08;8.40;;;5.10;;
12774;SDS011;6451;42.630;23.382;2023-12-28T02:37:41;9.10;;;5.43;;
12774;SDS011;6451;42.630;23.382;2023-12-28T02:40:11;6.77;;;5.70;;
12774;SDS011;6451;42.630;23.382;2023-12-28T02:42:42;8.07;;;5.50;;
12774;SDS011;6451;42.630;23.382;2023-12-28T02:45:09;8.67;;;5.90;;
12774;SDS011;6451;42.630;23.382;2023-12-28T02:47:37;8.47;;;5.73;;
12774;SDS011;6451;42.630;23.382;2023-12-28T02:50:04;8.37;;;5.63;;
12774;SDS011;6451;42.630;23.382;2023-12-28T02:52:32;7.80;;;6.20;;
12774;SDS011;6451;42.630;23.382;2023-12-28T02:54:59;8.90;;;6.37;;
12774;SDS011;6451;42.630;23.382;2023-12-28T02:57:27;8.63;;;6.30;;
12774;SDS011;6451;42.630;23.382;2023-12-28T02:59:54;10.53;;;6.10;;
12774;SDS011;6451;42.630;23.382;2023-12-28T03:02:21;9.33;;;6.70;;
12774;SDS011;6451;42.630;23.382;2023-12-28T03:04:48;11.53;;;6.37;;
12774;SDS011;6451;42.630;23.382;2023-12-28T03:07:15;8.27;;;6.00;;
12774;SDS011;6451;42.630;23.382;2023-12-28T03:09:43;8.87;;;6.30;;
12774;SDS011;6451;42.630;23.382;2023-12-28T03:12:10;7.87;;;6.20;;
12774;SDS011;6451;42.630;23.382;2023-12-28T03:14:38;8.40;;;6.33;;
12774;SDS011;6451;42.630;23.382;2023-12-28T03:17:05;11.43;;;6.37;;
12774;SDS011;6451;42.630;23.382;2023-12-28T03:19:32;10.53;;;6.60;;
12774;SDS011;6451;42.630;23.382;2023-12-28T03:21:59;9.03;;;6.40;;
12774;SDS011;6451;42.630;23.382;2023-12-28T03:24:26;10.50;;;6.27;;
12774;SDS011;6451;42.630;23.382;2023-12-28T03:26:52;8.00;;;5.77;;
12774;SDS011;6451;42.630;23.382;2023-12-28T03:29:19;9.67;;;6.30;;
12774;SDS011;6451;42.630;23.382;2023-12-28T03:31:47;9.10;;;6.27;;
12774;SDS011;6451;42.630;23.382;2023-12-28T03:34:15;7.67;;;5.80;;
12774;SDS011;6451;42.630;23.382;2023-12-28T03:36:42;9.53;;;6.30;;
12774;SDS011;6451;42.630;23.382;2023-12-28T03:39:09;11.77;;;6.70;;
12774;SDS011;6451;42.630;23.382;2023-12-28T03:41:36;9.40;;;6.53;;
12774;SDS011;6451;42.630;23.382;2023-12-28T03:44:03;9.47;;;6.43;;
12774;SDS011;6451;42.630;23.382;2023-12-28T03:46:30;7.27;;;5.67;;
12774;SDS011;6451;42.630;23.382;2023-12-28T03:48:58;7.30;;;5.70;;
12774;SDS011;6451;42.630;23.382;2023-12-28T03:51:25;8.20;;;5.90;;
12774;SDS011;6451;42.630;23.382;2023-12-28T03:53:52;8.93;;;6.77;;
12774;SDS011;6451;42.630;23.382;2023-12-28T03:56:20;10.37;;;6.20;;
12774;SDS011;6451;42.630;23.382;2023-12-28T03:58:48;8.23;;;5.87;;
12774;SDS011;6451;42.630;23.382;2023-12-28T04:01:15;8.97;;;6.40;;
12774;SDS011;6451;42.630;23.382;2023-12-28T04:03:46;10.03;;;6.40;;
12774;SDS011;6451;42.630;23.382;2023-12-28T04:06:14;8.40;;;6.43;;
12774;SDS011;6451;42.630;23.382;2023-12-28T04:08:42;11.63;;;7.00;;
12774;SDS011;6451;42.630;23.382;2023-12-28T04:11:09;10.73;;;6.83;;
12774;SDS011;6451;42.630;23.382;2023-12-28T04:13:36;11.27;;;6.93;;
12774;SDS011;6451;42.630;23.382;2023-12-28T04:16:04;10.67;;;6.90;;
12774;SDS011;6451;42.630;23.382;2023-12-28T04:18:31;9.17;;;6.20;;
12774;SDS011;6451;42.630;23.382;2023-12-28T04:20:58;9.23;;;6.13;;
12774;SDS011;6451;42.630;23.382;2023-12-28T04:23:26;8.60;;;6.13;;
12774;SDS011;6451;42.630;23.382;2023-12-28T04:25:53;8.00;;;5.70;;
12774;SDS011;6451;42.630;23.382;2023-12-28T04:28:20;8.90;;;5.80;;
12774;SDS011;6451;42.630;23.382;2023-12-28T04:30:47;7.13;;;5.90;;
12774;SDS011;6451;42.630;23.382;2023-12-28T04:33:16;10.00;;;5.93;;
12774;SDS011;6451;42.630;23.382;2023-12-28T04:35:44;6.43;;;5.30;;
12774;SDS011;6451;42.630;23.382;2023-12-28T04:38:13;8.77;;;5.50;;
12774;SDS011;6451;42.630;23.382;2023-12-28T04:40:41;9.70;;;5.67;;
12774;SDS011;6451;42.630;23.382;2023-12-28T04:43:08;7.00;;;5.10;;
12774;SDS011;6451;42.630;23.382;2023-12-28T04:45:35;8.57;;;5.27;;
12774;SDS011;6451;42.630;23.382;2023-12-28T04:48:02;10.23;;;5.47;;
12774;SDS011;6451;42.630;23.382;2023-12-28T04:50:29;7.43;;;5.20;;
12774;SDS011;6451;42.630;23.382;2023-12-28T04:52:56;6.50;;;4.63;;
12774;SDS011;6451;42.630;23.382;2023-12-28T04:55:23;7.50;;;4.77;;
12774;SDS011;6451;42.630;23.382;2023-12-28T04:57:51;7.90;;;4.23;;
12774;SDS011;6451;42.630;23.382;2023-12-28T05:00:18;8.50;;;4.47;;
12774;SDS011;6451;42.630;23.382;2023-12-28T05:02:45;6.10;;;4.23;;
12774;SDS011;6451;42.630;23.382;2023-12-28T05:05:12;6.13;;;4.30;;
12774;SDS011;6451;42.630;23.382;2023-12-28T05:07:39;7.27;;;5.07;;
12774;SDS011;6451;42.630;23.382;2023-12-28T05:10:06;7.33;;;5.80;;
12774;SDS011;6451;42.630;23.382;2023-12-28T05:12:34;6.53;;;5.40;;
12774;SDS011;6451;42.630;23.382;2023-12-28T05:15:03;6.33;;;4.87;;
12774;SDS011;6451;42.630;23.382;2023-12-28T05:17:31;6.53;;;4.50;;
12774;SDS011;6451;42.630;23.382;2023-12-28T05:19:58;8.10;;;4.50;;
12774;SDS011;6451;42.630;23.382;2023-12-28T05:22:26;5.63;;;3.83;;
12774;SDS011;6451;42.630;23.382;2023-12-28T05:24:53;5.73;;;4.23;;
12774;SDS011;6451;42.630;23.382;2023-12-28T05:27:20;6.83;;;4.50;;
12774;SDS011;6451;42.630;23.382;2023-12-28T05:29:47;7.20;;;5.10;;
12774;SDS011;6451;42.630;23.382;2023-12-28T05:32:15;7.83;;;5.00;;
12774;SDS011;6451;42.630;23.382;2023-12-28T05:34:42;9.83;;;5.50;;
12774;SDS011;6451;42.630;23.382;2023-12-28T05:37:09;9.90;;;5.37;;
12774;SDS011;6451;42.630;23.382;2023-12-28T05:39:37;6.70;;;5.10;;
12774;SDS011;6451;42.630;23.382;2023-12-28T05:42:04;6.80;;;5.27;;
12774;SDS011;6451;42.630;23.382;2023-12-28T05:44:31;7.80;;;5.10;;
12774;SDS011;6451;42.630;23.382;2023-12-28T05:46:58;6.87;;;4.60;;
12774;SDS011;6451;42.630;23.382;2023-12-28T05:49:26;7.27;;;5.43;;
12774;SDS011;6451;42.630;23.382;2023-12-28T05:51:53;9.10;;;5.60;;
12774;SDS011;6451;42.630;23.382;2023-12-28T05:54:20;9.40;;;5.50;;
12774;SDS011;6451;42.630;23.382;2023-12-28T05:56:47;6.73;;;5.10;;
12774;SDS011;6451;42.630;23.382;2023-12-28T05:59:14;7.40;;;5.30;;
12774;SDS011;6451;42.630;23.382;2023-12-28T06:01:41;6.63;;;5.10;;
12774;SDS011;6451;42.630;23.382;2023-12-28T06:04:09;8.13;;;5.30;;
12774;SDS011;6451;42.630;23.382;2023-12-28T06:06:37;9.67;;;5.67;;
12774;SDS011;6451;42.630;23.382;2023-12-28T06:09:04;7.47;;;5.40;;
12774;SDS011;6451;42.630;23.382;2023-12-28T06:11:31;8.47;;;5.17;;
12774;SDS011;6451;42.630;23.382;2023-12-28T06:13:58;9.13;;;5.90;;
12774;SDS011;6451;42.630;23.382;2023-12-28T06:16:25;6.70;;;5.37;;
12774;SDS011;6451;42.630;23.382;2023-12-28T06:18:51;7.63;;;5.47;;
12774;SDS011;6451;42.630;23.382;2023-12-28T06:21:18;9.23;;;5.20;;
12774;SDS011;6451;42.630;23.382;2023-12-28T06:23:47;6.90;;;5.13;;
12774;SDS011;6451;42.630;23.382;2023-12-28T06:26:14;7.23;;;4.93;;
12774;SDS011;6451;42.630;23.382;2023-12-28T06:28:41;6.90;;;4.93;;
12774;SDS011;6451;42.630;23.382;2023-12-28T06:31:07;6.60;;;5.03;;
12774;SDS011;6451;42.630;23.382;2023-12-28T06:33:34;8.50;;;4.93;;
12774;SDS011;6451;42.630;23.382;2023-12-28T06:36:04;7.20;;;5.20;;
12774;SDS011;6451;42.630;23.382;2023-12-28T06:38:32;8.70;;;5.67;;
12774;SDS011;6451;42.630;23.382;2023-12-28T06:41:00;8.00;;;5.23;;
12774;SDS011;6451;42.630;23.382;2023-12-28T06:43:27;8.53;;;6.50;;
12774;SDS011;6451;42.630;23.382;2023-12-28T06:45:54;13.90;;;9.03;;
12774;SDS011;6451;42.630;23.382;2023-12-28T06:48:21;13.30;;;9.50;;
12774;SDS011;6451;42.630;23.382;2023-12-28T06:50:48;19.10;;;11.30;;
12774;SDS011;6451;42.630;23.382;2023-12-28T06:53:15;18.33;;;12.37;;
12774;SDS011;6451;42.630;23.382;2023-12-28T06:55:42;19.83;;;13.60;;
12774;SDS011;6451;42.630;23.382;2023-12-28T06:58:10;15.80;;;12.07;;
12774;SDS011;6451;42.630;23.382;2023-12-28T07:00:37;12.73;;;9.87;;
12774;SDS011;6451;42.630;23.382;2023-12-28T07:03:04;13.33;;;9.73;;
12774;SDS011;6451;42.630;23.382;2023-12-28T07:05:32;13.20;;;8.57;;
12774;SDS011;6451;42.630;23.382;2023-12-28T07:07:58;11.87;;;9.07;;
12774;SDS011;6451;42.630;23.382;2023-12-28T07:10:25;16.67;;;10.80;;
12774;SDS011;6451;42.630;23.382;2023-12-28T07:12:52;16.60;;;12.23;;
12774;SDS011;6451;42.630;23.382;2023-12-28T07:15:20;20.60;;;12.30;;
12774;SDS011;6451;42.630;23.382;2023-12-28T07:17:47;17.77;;;12.23;;
12774;SDS011;6451;42.630;23.382;2023-12-28T07:20:15;16.57;;;12.10;;
12774;SDS011;6451;42.630;23.382;2023-12-28T07:22:42;13.83;;;10.70;;
12774;SDS011;6451;42.630;23.382;2023-12-28T07:25:08;15.10;;;10.80;;
12774;SDS011;6451;42.630;23.382;2023-12-28T07:27:36;12.83;;;8.97;;
12774;SDS011;6451;42.630;23.382;2023-12-28T07:30:03;12.10;;;8.73;;
12774;SDS011;6451;42.630;23.382;2023-12-28T07:32:32;12.07;;;8.13;;
12774;SDS011;6451;42.630;23.382;2023-12-28T07:34:59;11.93;;;6.93;;
12774;SDS011;6451;42.630;23.382;2023-12-28T07:37:26;8.13;;;6.30;;
12774;SDS011;6451;42.630;23.382;2023-12-28T07:39:53;10.37;;;6.47;;
12774;SDS011;6451;42.630;23.382;2023-12-28T07:42:20;8.87;;;6.20;;
12774;SDS011;6451;42.630;23.382;2023-12-28T07:44:47;8.87;;;6.37;;
12774;SDS011;6451;42.630;23.382;2023-12-28T07:47:14;8.00;;;6.03;;
12774;SDS011;6451;42.630;23.382;2023-12-28T07:49:42;10.90;;;6.60;;
12774;SDS011;6451;42.630;23.382;2023-12-28T07:52:09;16.50;;;12.90;;
12774;SDS011;6451;42.630;23.382;2023-12-28T07:54:36;23.93;;;15.77;;
12774;SDS011;6451;42.630;23.382;2023-12-28T07:57:03;23.70;;;17.07;;
12774;SDS011;6451;42.630;23.382;2023-12-28T07:59:30;23.67;;;18.20;;
12774;SDS011;6451;42.630;23.382;2023-12-28T08:01:57;31.83;;;21.80;;
12774;SDS011;6451;42.630;23.382;2023-12-28T08:04:24;34.33;;;25.20;;
12774;SDS011;6451;42.630;23.382;2023-12-28T08:06:52;37.23;;;25.47;;
12774;SDS011;6451;42.630;23.382;2023-12-28T08:09:19;38.13;;;26.90;;
12774;SDS011;6451;42.630;23.382;2023-12-28T08:11:46;36.03;;;24.73;;
12774;SDS011;6451;42.630;23.382;2023-12-28T08:14:13;34.60;;;24.33;;
12774;SDS011;6451;42.630;23.382;2023-12-28T08:16:41;36.17;;;24.43;;
12774;SDS011;6451;42.630;23.382;2023-12-28T08:19:08;32.07;;;23.33;;
12774;SDS011;6451;42.630;23.382;2023-12-28T08:21:35;33.90;;;22.07;;
12774;SDS011;6451;42.630;23.382;2023-12-28T08:24:03;25.90;;;18.97;;
12774;SDS011;6451;42.630;23.382;2023-12-28T08:26:31;19.83;;;15.77;;
12774;SDS011;6451;42.630;23.382;2023-12-28T08:28:58;20.37;;;14.70;;
12774;SDS011;6451;42.630;23.382;2023-12-28T08:31:25;18.30;;;13.20;;
12774;SDS011;6451;42.630;23.382;2023-12-28T08:33:51;20.57;;;12.60;;
12774;SDS011;6451;42.630;23.382;2023-12-28T08:36:18;18.40;;;12.97;;
12774;SDS011;6451;42.630;23.382;2023-12-28T08:38:45;18.57;;;12.97;;
12774;SDS011;6451;42.630;23.382;2023-12-28T08:41:22;19.87;;;13.43;;
12774;SDS011;6451;42.630;23.382;2023-12-28T08:43:50;20.50;;;14.20;;
12774;SDS011;6451;42.630;23.382;2023-12-28T08:46:18;21.60;;;14.80;;
12774;SDS011;6451;42.630;23.382;2023-12-28T08:48:45;17.83;;;14.33;;
12774;SDS011;6451;42.630;23.382;2023-12-28T08:51:12;21.80;;;16.30;;
12774;SDS011;6451;42.630;23.382;2023-12-28T08:53:40;19.03;;;14.40;;
12774;SDS011;6451;42.630;23.382;2023-12-28T08:56:15;19.90;;;15.43;;
12774;SDS011;6451;42.630;23.382;2023-12-28T08:58:44;21.07;;;14.47;;
12774;SDS011;6451;42.630;23.382;2023-12-28T09:01:16;24.07;;;15.47;;
12774;SDS011;6451;42.630;23.382;2023-12-28T09:03:43;22.73;;;14.60;;
12774;SDS011;6451;42.630;23.382;2023-12-28T09:06:10;19.20;;;14.03;;
12774;SDS011;6451;42.630;23.382;2023-12-28T09:08:37;22.10;;;14.73;;
12774;SDS011;6451;42.630;23.382;2023-12-28T09:11:04;17.90;;;13.20;;
12774;SDS011;6451;42.630;23.382;2023-12-28T09:13:30;19.70;;;13.97;;
12774;SDS011;6451;42.630;23.382;2023-12-28T09:15:59;21.50;;;14.67;;
12774;SDS011;6451;42.630;23.382;2023-12-28T09:18:25;17.40;;;13.47;;
12774;SDS011;6451;42.630;23.382;2023-12-28T09:20:52;18.90;;;14.83;;
12774;SDS011;6451;42.630;23.382;2023-12-28T09:23:20;21.30;;;15.53;;
12774;SDS011;6451;42.630;23.382;2023-12-28T09:25:47;21.97;;;15.83;;
12774;SDS011;6451;42.630;23.382;2023-12-28T09:28:14;23.50;;;16.77;;
12774;SDS011;6451;42.630;23.382;2023-12-28T09:30:41;26.33;;;17.17;;
12774;SDS011;6451;42.630;23.382;2023-12-28T09:33:09;22.60;;;17.57;;
12774;SDS011;6451;42.630;23.382;2023-12-28T09:35:36;25.33;;;17.20;;
12774;SDS011;6451;42.630;23.382;2023-12-28T09:38:03;22.47;;;17.00;;
12774;SDS011;6451;42.630;23.382;2023-12-28T09:40:30;23.33;;;17.37;;
12774;SDS011;6451;42.630;23.382;2023-12-28T09:43:00;22.97;;;16.80;;
12774;SDS011;6451;42.630;23.382;2023-12-28T09:45:32;28.17;;;17.63;;
12774;SDS011;6451;42.630;23.382;2023-12-28T09:47:59;26.87;;;18.63;;
12774;SDS011;6451;42.630;23.382;2023-12-28T09:50:29;24.90;;;18.20;;
12774;SDS011;6451;42.630;23.382;2023-12-28T09:52:56;26.10;;;17.87;;
12774;SDS011;6451;42.630;23.382;2023-12-28T09:55:23;28.50;;;17.90;;
12774;SDS011;6451;42.630;23.382;2023-12-28T09:57:51;26.03;;;18.10;;
12774;SDS011;6451;42.630;23.382;2023-12-28T10:00:17;29.60;;;18.77;;
12774;SDS011;6451;42.630;23.382;2023-12-28T10:02:44;24.60;;;17.47;;
12774;SDS011;6451;42.630;23.382;2023-12-28T10:05:12;22.43;;;17.33;;
12774;SDS011;6451;42.630;23.382;2023-12-28T10:07:43;22.67;;;17.27;;
12774;SDS011;6451;42.630;23.382;2023-12-28T10:10:10;28.17;;;18.77;;
12774;SDS011;6451;42.630;23.382;2023-12-28T10:12:37;25.07;;;18.13;;
12774;SDS011;6451;42.630;23.382;2023-12-28T10:15:05;25.33;;;17.43;;
12774;SDS011;6451;42.630;23.382;2023-12-28T10:17:32;22.47;;;18.03;;
12774;SDS011;6451;42.630;23.382;2023-12-28T10:20:00;27.03;;;18.57;;
12774;SDS011;6451;42.630;23.382;2023-12-28T10:22:30;25.53;;;18.47;;
12774;SDS011;6451;42.630;23.382;2023-12-28T10:24:59;23.00;;;17.83;;
12774;SDS011;6451;42.630;23.382;2023-12-28T10:27:26;24.00;;;18.07;;
12774;SDS011;6451;42.630;23.382;2023-12-28T10:29:53;23.13;;;18.27;;
12774;SDS011;6451;42.630;23.382;2023-12-28T10:32:21;26.97;;;19.03;;
12774;SDS011;6451;42.630;23.382;2023-12-28T10:34:51;25.17;;;18.27;;
12774;SDS011;6451;42.630;23.382;2023-12-28T10:37:19;24.97;;;17.83;;
12774;SDS011;6451;42.630;23.382;2023-12-28T10:39:47;29.23;;;18.57;;
12774;SDS011;6451;42.630;23.382;2023-12-28T10:42:21;22.40;;;17.63;;
12774;SDS011;6451;42.630;23.382;2023-12-28T10:44:55;21.87;;;17.73;;
12774;SDS011;6451;42.630;23.382;2023-12-28T10:47:31;20.97;;;17.43;;
12774;SDS011;6451;42.630;23.382;2023-12-28T10:50:00;24.37;;;17.23;;
12774;SDS011;6451;42.630;23.382;2023-12-28T10:52:30;21.93;;;17.20;;
12774;SDS011;6451;42.630;23.382;2023-12-28T10:55:02;25.77;;;17.13;;
12774;SDS011;6451;42.630;23.382;2023-12-28T10:57:47;24.93;;;17.07;;
12774;SDS011;6451;42.630;23.382;2023-12-28T11:00:22;25.07;;;17.10;;
12774;SDS011;6451;42.630;23.382;2023-12-28T11:02:52;24.83;;;17.23;;
12774;SDS011;6451;42.630;23.382;2023-12-28T11:05:23;28.90;;;17.70;;
12774;SDS011;6451;42.630;23.382;2023-12-28T11:07:50;27.43;;;19.13;;
12774;SDS011;6451;42.630;23.382;2023-12-28T11:10:19;25.90;;;18.00;;
12774;SDS011;6451;42.630;23.382;2023-12-28T11:12:51;28.17;;;18.60;;
12774;SDS011;6451;42.630;23.382;2023-12-28T11:15:18;29.60;;;19.33;;
12774;SDS011;6451;42.630;23.382;2023-12-28T11:17:45;27.73;;;18.80;;
12774;SDS011;6451;42.630;23.382;2023-12-28T11:20:13;27.10;;;19.03;;
12774;SDS011;6451;42.630;23.382;2023-12-28T11:22:43;27.83;;;18.97;;
12774;SDS011;6451;42.630;23.382;2023-12-28T11:25:14;26.27;;;19.30;;
12774;SDS011;6451;42.630;23.382;2023-12-28T11:27:43;26.07;;;19.57;;
12774;SDS011;6451;42.630;23.382;2023-12-28T11:30:13;27.70;;;19.60;;
12774;SDS011;6451;42.630;23.382;2023-12-28T11:32:40;33.43;;;20.13;;
12774;SDS011;6451;42.630;23.382;2023-12-28T11:35:09;28.87;;;19.77;;
12774;SDS011;6451;42.630;23.382;2023-12-28T11:37:40;30.00;;;20.23;;
12774;SDS011;6451;42.630;23.382;2023-12-28T11:40:10;29.63;;;19.53;;
12774;SDS011;6451;42.630;23.382;2023-12-28T11:42:47;24.50;;;18.83;;
12774;SDS011;6451;42.630;23.382;2023-12-28T11:45:17;25.63;;;19.20;;
12774;SDS011;6451;42.630;23.382;2023-12-28T11:47:44;31.23;;;19.27;;
12774;SDS011;6451;42.630;23.382;2023-12-28T11:50:12;26.37;;;19.33;;
12774;SDS011;6451;42.630;23.382;2023-12-28T11:52:39;26.37;;;19.93;;
12774;SDS011;6451;42.630;23.382;2023-12-28T11:55:07;27.80;;;20.13;;
12774;SDS011;6451;42.630;23.382;2023-12-28T11:57:36;27.20;;;20.10;;
12774;SDS011;6451;42.630;23.382;2023-12-28T12:00:04;28.23;;;20.43;;
12774;SDS011;6451;42.630;23.382;2023-12-28T12:02:35;29.73;;;19.73;;
12774;SDS011;6451;42.630;23.382;2023-12-28T12:05:02;31.93;;;19.27;;
12774;SDS011;6451;42.630;23.382;2023-12-28T12:07:30;24.97;;;19.33;;
12774;SDS011;6451;42.630;23.382;2023-12-28T12:09:57;27.73;;;19.33;;
12774;SDS011;6451;42.630;23.382;2023-12-28T12:12:24;25.63;;;18.00;;
12774;SDS011;6451;42.630;23.382;2023-12-28T12:14:51;28.37;;;18.07;;
12774;SDS011;6451;42.630;23.382;2023-12-28T12:17:18;25.60;;;17.73;;
12774;SDS011;6451;42.630;23.382;2023-12-28T12:19:47;22.80;;;17.97;;
12774;SDS011;6451;42.630;23.382;2023-12-28T12:22:16;27.53;;;17.67;;
12774;SDS011;6451;42.630;23.382;2023-12-28T12:24:44;23.20;;;18.03;;
12774;SDS011;6451;42.630;23.382;2023-12-28T12:27:13;23.43;;;17.53;;
12774;SDS011;6451;42.630;23.382;2023-12-28T12:29:40;24.27;;;17.47;;
12774;SDS011;6451;42.630;23.382;2023-12-28T12:32:07;28.87;;;18.87;;
12774;SDS011;6451;42.630;23.382;2023-12-28T12:34:34;23.50;;;16.60;;
12774;SDS011;6451;42.630;23.382;2023-12-28T12:37:03;25.23;;;17.67;;
12774;SDS011;6451;42.630;23.382;2023-12-28T12:39:31;25.93;;;16.93;;
12774;SDS011;6451;42.630;23.382;2023-12-28T12:41:58;25.43;;;18.03;;
12774;SDS011;6451;42.630;23.382;2023-12-28T12:44:25;26.10;;;17.03;;
12774;SDS011;6451;42.630;23.382;2023-12-28T12:46:58;30.70;;;17.63;;
12774;SDS011;6451;42.630;23.382;2023-12-28T12:49:25;24.53;;;18.83;;
12774;SDS011;6451;42.630;23.382;2023-12-28T12:51:53;27.57;;;19.83;;
12774;SDS011;6451;42.630;23.382;2023-12-28T12:54:21;31.90;;;18.90;;
12774;SDS011;6451;42.630;23.382;2023-12-28T12:56:49;24.87;;;18.47;;
12774;SDS011;6451;42.630;23.382;2023-12-28T12:59:17;27.40;;;19.13;;
12774;SDS011;6451;42.630;23.382;2023-12-28T13:01:46;30.87;;;18.23;;
12774;SDS011;6451;42.630;23.382;2023-12-28T13:04:14;27.23;;;18.70;;
12774;SDS011;6451;42.630;23.382;2023-12-28T13:06:42;25.50;;;18.57;;
12774;SDS011;6451;42.630;23.382;2023-12-28T13:09:09;25.77;;;17.63;;
12774;SDS011;6451;42.630;23.382;2023-12-28T13:11:38;31.30;;;17.80;;
12774;SDS011;6451;42.630;23.382;2023-12-28T13:14:05;28.33;;;18.57;;
12774;SDS011;6451;42.630;23.382;2023-12-28T13:16:32;26.73;;;18.23;;
12774;SDS011;6451;42.630;23.382;2023-12-28T13:18:59;28.10;;;18.97;;
12774;SDS011;6451;42.630;23.382;2023-12-28T13:21:26;29.50;;;18.30;;
12774;SDS011;6451;42.630;23.382;2023-12-28T13:23:53;33.83;;;18.93;;
12774;SDS011;6451;42.630;23.382;2023-12-28T13:26:22;29.23;;;18.07;;
12774;SDS011;6451;42.630;23.382;2023-12-28T13:28:50;26.83;;;18.73;;
12774;SDS011;6451;42.630;23.382;2023-12-28T13:31:17;27.83;;;17.60;;
12774;SDS011;6451;42.630;23.382;2023-12-28T13:33:44;28.97;;;18.70;;
12774;SDS011;6451;42.630;23.382;2023-12-28T13:36:11;25.20;;;18.20;;
12774;SDS011;6451;42.630;23.382;2023-12-28T13:38:38;30.40;;;18.57;;
12774;SDS011;6451;42.630;23.382;2023-12-28T13:41:05;27.57;;;17.80;;
12774;SDS011;6451;42.630;23.382;2023-12-28T13:43:33;28.13;;;19.00;;
12774;SDS011;6451;42.630;23.382;2023-12-28T13:46:02;24.27;;;18.07;;
12774;SDS011;6451;42.630;23.382;2023-12-28T13:48:30;26.67;;;18.90;;
12774;SDS011;6451;42.630;23.382;2023-12-28T13:50:57;27.90;;;18.17;;
12774;SDS011;6451;42.630;23.382;2023-12-28T13:53:23;27.40;;;17.93;;
12774;SDS011;6451;42.630;23.382;2023-12-28T13:55:50;28.87;;;18.23;;
12774;SDS011;6451;42.630;23.382;2023-12-28T13:58:17;26.80;;;19.03;;
12774;SDS011;6451;42.630;23.382;2023-12-28T14:00:44;26.30;;;18.57;;
12774;SDS011;6451;42.630;23.382;2023-12-28T14:03:12;29.07;;;17.97;;
12774;SDS011;6451;42.630;23.382;2023-12-28T14:05:41;25.53;;;17.63;;
12774;SDS011;6451;42.630;23.382;2023-12-28T14:08:08;24.53;;;18.03;;
12774;SDS011;6451;42.630;23.382;2023-12-28T14:10:36;27.10;;;19.37;;
12774;SDS011;6451;42.630;23.382;2023-12-28T14:13:04;26.87;;;19.40;;
12774;SDS011;6451;42.630;23.382;2023-12-28T14:15:31;33.97;;;19.63;;
12774;SDS011;6451;42.630;23.382;2023-12-28T14:17:58;31.97;;;19.03;;
12774;SDS011;6451;42.630;23.382;2023-12-28T14:20:26;28.57;;;18.87;;
12774;SDS011;6451;42.630;23.382;2023-12-28T14:22:54;27.73;;;18.13;;
12774;SDS011;6451;42.630;23.382;2023-12-28T14:25:21;30.47;;;19.03;;
12774;SDS011;6451;42.630;23.382;2023-12-28T14:27:48;31.67;;;19.20;;
12774;SDS011;6451;42.630;23.382;2023-12-28T14:30:15;29.27;;;18.90;;
12774;SDS011;6451;42.630;23.382;2023-12-28T14:32:43;26.80;;;17.87;;
12774;SDS011;6451;42.630;23.382;2023-12-28T14:35:11;29.20;;;17.97;;
12774;SDS011;6451;42.630;23.382;2023-12-28T14:37:42;38.60;;;18.20;;